• Join FlightAware (Why Join?)
  • Login
  • US Flag 
02:32AM EDT


 

Airport Tracker/Info


-or-


 

Live Flight TrackerFlight Track Log ✈ N510SR ✈ 16-Jul-2013 ✈ KFOK - KAUG

Flight Track Log - Related Links

Times and Time Zones

All times are in EDT time to prevent confusion due to time zone crossing. See the N510SR flight status page for this flight to view local times or setup timezone preferences in your user account.

Time Position Orientation Groundspeed Altitude Reporting Facility
EDT Latitude Longitude Course Direction KTS MPH feet Rate Location/Type
07:39AM 40.8833 -72.5833 36° Northeast 187 215 2,100  Level New York TRACON
07:40AM 40.9333 -72.5361 36° Northeast 201 231 3,400 2,280 Climbing Boston Center
07:41AM 40.9269 -72.4428 95° East 189 217 7,300 3,540 Climbing Boston Center
07:42AM 40.9311 -72.3494 87° East 223 257 10,500 2,520 Climbing Boston Center
07:43AM 40.9853 -72.2806 44° Northeast 242 278 12,400 1,920 Climbing Boston Center
07:44AM 41.0664 -72.2089 34° Northeast 285 328 14,400 2,220 Climbing Boston Center
07:45AM 41.1517 -72.1314 34° Northeast 330 380 16,900 2,400 Climbing Boston Center
07:46AM 41.2492 -72.0425 34° Northeast 359 413 19,300 2,100 Climbing Boston Center
07:47AM 41.3406 -71.9564 35° Northeast 383 441 21,200 1,800 Climbing Boston Center
07:48AM 41.4381 -71.8669 35° Northeast 403 464 23,000 900 Climbing Boston Center
07:49AM 41.5439 -71.7661 35° Northeast 435 501 23,000  Level Boston Center
07:50AM 41.6475 -71.6678 35° Northeast 451 519 23,000  Level Boston Center
07:51AM 41.7383 -71.5583 42° Northeast 451 519 23,000  Level Boston Center
07:52AM 41.8039 -71.4319 55° Northeast 445 512 23,000  Level Boston Center
07:53AM 41.9050 -71.3103 42° Northeast 446 513 23,000  Level Boston Center
07:54AM 41.9939 -71.2444 29° Northeast 446 513 23,000  Level Boston Center
07:55AM 42.1078 -71.1697 26° Northeast 446 513 23,000  Level Boston Center
07:56AM 42.2422 -71.0744 28° Northeast 446 513 23,000  Level Boston Center
07:57AM 42.3494 -70.9961 28° Northeast 444 511 23,000  Level Boston Center
07:58AM 42.4569 -70.9119 30° Northeast 438 504 23,000  Level Boston Center
07:59AM 42.5578 -70.8250 32° Northeast 433 498 23,000  Level Boston Center
08:00AM 42.6606 -70.7375 32° Northeast 428 493 23,000 -600 Level Boston Center
08:01AM 42.7594 -70.6500 33° Northeast 428 493 21,900 -1,500 Descending Boston Center
08:02AM 42.8603 -70.5650 32° Northeast 423 487 20,000 -2,040 Descending Boston Center
08:03AM 42.9547 -70.4825 33° Northeast 416 479 17,900 -1,920 Descending Boston Center
08:04AM 43.0469 -70.4031 32° Northeast 400 460 16,200 -1,800 Descending Boston Center
08:05AM 43.1311 -70.3347 31° Northeast 393 452 14,400 -1,740 Descending Boston Center
08:06AM 43.2344 -70.2742 23° Northeast 371 427 12,800 -1,380 Descending Boston Center
08:08AM 43.3169 -70.2314 21° North 359 413 11,400 -1,260 Descending Boston Center
08:09AM 43.4283 -70.1758 20° North 354 407 10,100 -660 Descending Boston Center
08:10AM 43.5231 -70.1236 22° Northeast 338 389 10,100  Level Boston Center
08:11AM 43.6036 -70.0833 20° North 338 389 10,100 -60 Level Boston Center
08:12AM 43.7025 -70.0306 21° North 338 389 10,000  Descending Boston Center
08:13AM 43.7769 -69.9931 20° North 327 376 10,100 -420 Climbing Boston Center
08:14AM 43.8550 -69.9525 21° North 287 330 9,200 -960 Descending Boston Center
08:15AM 43.9169 -69.9181 22° Northeast 266 306 8,000 -1,320 Descending Boston Center
08:16AM 44.0033 -69.8742 20° North 266 306 6,400 -1,500 Descending Boston Center
08:17AM 44.0797 -69.8333 21° North 266 306 5,000 -1,200 Descending Boston Center
08:18AM 44.1353 -69.8047 20° North 266 306 4,100 -900 Descending Boston Center
08:20AM 44.3024 -69.7905 20° North  Level FlightAware Approximate